Time;durP1;ratioP1;P1;durP2;ratioP2;P2;SDS_P1;SDS_P2;PMS_P1;PMS_P2;Temp;Humidity;BMP_temperature;BMP_pressure;BME280_temperature;BME280_humidity;BME280_pressure;Samples;Min_cycle;Max_cycle;Signal;HPM_P1;HPM_P2
2023/10/15 00:01:51;;;;;;;1.17;1.10;;;;;;;6.18;97.14;101708.78;5015115;28;20068;-88
2023/10/15 00:04:38;;;;;;;1.77;1.55;;;;;;;6.29;98.50;101717.56;5015319;28;20463;-88
2023/10/15 00:07:06;;;;;;;1.02;1.02;;;;;;;6.38;97.79;101745.19;5017439;28;20363;-88
2023/10/15 00:09:33;;;;;;;1.40;1.30;;;;;;;6.31;98.15;101741.66;5014956;28;20533;-89
2023/10/15 00:12:13;;;;;;;0.93;0.93;;;;;;;6.45;98.06;101770.25;5015656;28;20071;-88
2023/10/15 00:14:39;;;;;;;1.35;1.23;;;;;;;6.47;97.40;101762.53;5015295;28;20463;-88
2023/10/15 00:17:05;;;;;;;1.10;1.00;;;;;;;6.43;97.42;101742.69;5014510;28;20053;-88
2023/10/15 00:19:30;;;;;;;1.00;1.00;;;;;;;6.43;97.97;101747.84;5011856;28;20118;-89
2023/10/15 00:22:19;;;;;;;1.35;0.85;;;;;;;6.64;98.25;101770.56;5015059;28;20117;-88
2023/10/15 00:24:57;;;;;;;1.20;1.05;;;;;;;6.56;99.65;101741.19;5014676;28;20050;-88
2023/10/15 00:27:22;;;;;;;1.48;1.38;;;;;;;6.55;98.10;101742.88;5014750;28;20100;-89
2023/10/15 00:30:12;;;;;;;1.37;1.03;;;;;;;6.61;98.20;101750.75;5013811;28;20056;-88
2023/10/15 00:35:26;;;;;;;2.47;1.40;;;;;;;6.63;98.00;101741.31;5014589;28;20033;-88
2023/10/15 00:38:11;;;;;;;2.67;1.43;;;;;;;6.74;98.38;101748.34;5013970;28;20034;-88
2023/10/15 00:40:41;;;;;;;1.30;1.20;;;;;;;6.83;98.57;101763.09;5014691;28;20396;-89
2023/10/15 00:43:18;;;;;;;1.70;1.40;;;;;;;6.72;99.06;101737.16;5014815;28;20030;-88
2023/10/15 00:45:44;;;;;;;2.25;1.60;;;;;;;6.76;99.07;101746.63;5016621;28;20041;-88
2023/10/15 00:50:55;;;;;;;2.58;1.50;;;;;;;6.85;99.19;101743.34;5022167;22;20049;-89
2023/10/15 00:53:26;;;;;;;2.08;1.70;;;;;;;6.89;100.00;101732.22;5014386;28;20030;-90
2023/10/15 00:56:08;;;;;;;2.05;1.33;;;;;;;6.89;99.57;101732.22;5015133;28;20021;-91
2023/10/15 01:03:48;;;;;;;1.10;1.05;;;;;;;6.93;99.56;101736.56;5034671;28;20036;-90
2023/10/15 01:06:38;;;;;;;1.35;1.00;;;;;;;6.95;100.00;101737.47;5034175;28;20055;-90
2023/10/15 01:11:55;;;;;;;0.90;0.90;;;;;;;6.96;99.75;101715.97;5034706;28;20044;-90
2023/10/15 01:14:33;;;;;;;1.45;1.35;;;;;;;6.96;100.00;101723.72;5034269;28;20033;-91
2023/10/15 01:17:04;;;;;;;1.15;1.05;;;;;;;6.97;99.76;101724.59;5034716;28;20104;-90
2023/10/15 01:19:33;;;;;;;0.93;0.90;;;;;;;6.97;99.38;101719.44;5034440;28;20471;-90
2023/10/15 01:22:02;;;;;;;0.90;0.82;;;;;;;7.00;99.20;101728.09;5034235;28;20029;-90
2023/10/15 01:24:28;;;;;;;1.00;0.90;;;;;;;7.04;99.00;101726.41;5033998;28;20021;-90
2023/10/15 01:27:14;;;;;;;0.73;0.45;;;;;;;7.05;98.87;101725.56;5033953;28;20108;-91
2023/10/15 01:29:44;;;;;;;2.53;1.40;;;;;;;6.85;99.92;101714.97;5025805;28;20026;-90
2023/10/15 01:32:18;;;;;;;6.55;1.95;;;;;;;6.84;100.00;101720.97;5013896;28;20060;-89
2023/10/15 01:35:07;;;;;;;3.35;1.80;;;;;;;6.93;100.00;101740.03;5014208;28;20025;-89
2023/10/15 01:37:36;;;;;;;3.75;1.80;;;;;;;6.87;99.53;101731.34;5015597;28;20030;-90
2023/10/15 01:42:42;;;;;;;2.83;1.60;;;;;;;6.89;100.00;101721.91;5014433;28;20080;-91
2023/10/15 01:47:37;;;;;;;1.38;1.27;;;;;;;7.08;99.49;101762.59;5014404;28;20069;-92
2023/10/15 01:50:08;;;;;;;1.13;1.00;;;;;;;7.10;99.66;101780.69;5012855;28;20046;-90
2023/10/15 01:52:42;;;;;;;0.82;0.82;;;;;;;7.10;100.00;101760.03;5013702;28;20483;-89
2023/10/15 01:55:08;;;;;;;1.40;1.00;;;;;;;7.02;100.00;101722.94;5013562;28;20038;-90
2023/10/15 01:57:43;;;;;;;1.87;1.20;;;;;;;7.08;100.00;101712.72;5013923;28;20040;-89
2023/10/15 02:00:33;;;;;;;0.80;0.80;;;;;;;7.00;100.00;101689.38;5014003;28;20026;-89
2023/10/15 02:02:58;;;;;;;0.90;0.80;;;;;;;7.08;100.00;101698.06;5014235;28;20034;-90
2023/10/15 02:05:44;;;;;;;0.60;0.60;;;;;;;6.99;100.00;101697.06;5013821;28;20030;-90
2023/10/15 02:08:22;;;;;;;0.52;0.52;;;;;;;7.07;100.00;101703.22;5014120;28;20471;-90
2023/10/15 02:10:57;;;;;;;2.20;0.90;;;;;;;7.10;100.00;101696.38;5013872;28;20489;-90
2023/10/15 02:13:22;;;;;;;0.80;0.80;;;;;;;6.97;100.00;101681.59;5013851;28;20088;-90
2023/10/15 02:16:07;;;;;;;0.57;0.50;;;;;;;6.97;99.94;101681.59;5013348;28;20030;-90
2023/10/15 02:18:32;;;;;;;1.30;0.80;;;;;;;6.97;100.00;101701.38;5014308;28;20030;-90
2023/10/15 02:21:07;;;;;;;0.70;0.70;;;;;;;6.87;100.00;101695.22;5014043;28;20014;-91
2023/10/15 02:23:33;;;;;;;0.82;0.80;;;;;;;6.84;100.00;101701.19;5013897;28;20029;-89
2023/10/15 02:26:04;;;;;;;1.07;0.97;;;;;;;6.87;100.00;101710.69;5030212;28;20359;-90
2023/10/15 02:28:35;;;;;;;1.10;1.00;;;;;;;6.79;100.00;101703.72;5034028;28;20433;-90
2023/10/15 02:33:50;;;;;;;1.40;1.30;;;;;;;6.63;100.00;101688.84;5033786;28;20041;-90
2023/10/15 02:36:16;;;;;;;2.08;1.88;;;;;;;6.56;100.00;101687.03;5033759;28;20419;-90
2023/10/15 02:38:59;;;;;;;2.50;1.57;;;;;;;6.58;100.00;101687.94;5034675;28;20052;-90
2023/10/15 02:41:47;;;;;;;3.53;2.15;;;;;;;6.56;100.00;101697.34;5033346;28;20033;-90
2023/10/15 02:44:32;;;;;;;2.53;1.98;;;;;;;6.59;100.00;101702.53;5033197;28;20029;-90
2023/10/15 02:47:07;;;;;;;3.58;2.28;;;;;;;6.42;100.00;101673.91;5033616;28;20017;-90
2023/10/15 02:49:49;;;;;;;5.13;2.47;;;;;;;6.37;100.00;101709.09;5028912;28;20059;-89
2023/10/15 02:52:24;;;;;;;9.48;3.42;;;;;;;6.30;100.00;101768.31;4984527;28;20132;-89
2023/10/15 02:54:50;;;;;;;6.18;3.00;;;;;;;6.28;100.00;101753.63;5013751;28;20359;-91
2023/10/15 02:57:16;;;;;;;6.00;3.13;;;;;;;6.36;100.00;101764.06;5013307;28;20033;-89
2023/10/15 02:59:55;;;;;;;7.43;2.70;;;;;;;6.29;100.00;101757.94;5013782;28;20037;-90
2023/10/15 03:02:43;;;;;;;4.55;2.40;;;;;;;6.28;100.00;101745.88;5012938;28;20060;-90
2023/10/15 03:05:13;;;;;;;3.90;2.08;;;;;;;6.30;100.00;101750.25;5013146;28;20030;-89
2023/10/15 03:07:54;;;;;;;2.33;1.70;;;;;;;6.37;100.00;101752.91;5013972;28;20374;-91
2023/10/15 03:10:22;;;;;;;1.92;1.60;;;;;;;6.38;100.00;101747.78;5016040;28;20373;-89
2023/10/15 03:13:13;;;;;;;2.58;1.40;;;;;;;6.39;100.00;101753.81;5016621;28;20063;-91
2023/10/15 03:16:07;;;;;;;1.17;1.17;;;;;;;6.52;100.00;101783.25;5017224;28;20406;-89
2023/10/15 03:18:38;;;;;;;1.83;1.30;;;;;;;6.54;100.00;101799.63;5016772;28;20072;-89
2023/10/15 03:23:49;;;;;;;2.17;1.20;;;;;;;6.34;100.00;101775.22;5036022;28;20461;-86
2023/10/15 03:26:18;;;;;;;1.23;0.82;;;;;;;6.44;100.00;101789.16;5034482;28;20470;-85
2023/10/15 03:28:51;;;;;;;1.45;1.10;;;;;;;6.53;100.00;101778.09;5035591;28;20041;-86
2023/10/15 03:31:27;;;;;;;1.13;0.75;;;;;;;6.53;100.00;101751.47;5035251;28;20029;-87
2023/10/15 03:34:17;;;;;;;0.70;0.60;;;;;;;6.57;100.00;101761.84;5035212;28;20374;-88
2023/10/15 03:39:24;;;;;;;0.52;0.52;;;;;;;6.64;100.00;101775.72;5035600;28;20048;-89
2023/10/15 03:41:53;;;;;;;0.70;0.70;;;;;;;6.68;100.00;101785.25;5035891;28;20025;-89
2023/10/15 03:44:31;;;;;;;0.60;0.52;;;;;;;6.62;100.00;101773.13;5035793;28;20025;-90
2023/10/15 03:47:05;;;;;;;1.10;0.60;;;;;;;6.69;100.00;101786.09;5033665;28;20534;-90
2023/10/15 03:49:32;;;;;;;0.40;0.40;;;;;;;6.64;100.00;101767.97;5015746;28;20129;-89
2023/10/15 03:51:57;;;;;;;1.20;0.30;;;;;;;6.64;100.00;101774.00;5029619;22;20045;-89
2023/10/15 03:54:23;;;;;;;0.60;0.60;;;;;;;6.68;100.00;101789.53;5035362;28;20084;-89
2023/10/15 03:56:52;;;;;;;0.40;0.40;;;;;;;6.67;100.00;101796.41;5038395;22;20133;-89
2023/10/15 03:59:19;;;;;;;0.50;0.50;;;;;;;6.72;100.00;101799.06;5015485;28;20028;-89
2023/10/15 04:01:48;;;;;;;1.05;0.68;;;;;;;6.73;100.00;101798.22;5015633;28;20065;-89
2023/10/15 04:04:20;;;;;;;0.73;0.50;;;;;;;6.78;100.00;101809.47;5015679;28;20026;-89
2023/10/15 04:06:51;;;;;;;0.50;0.50;;;;;;;6.69;100.00;101786.09;5016121;28;20437;-89
2023/10/15 04:09:17;;;;;;;0.65;0.50;;;;;;;6.75;100.00;101789.66;5014897;28;20025;-89
2023/10/15 04:11:49;;;;;;;0.43;0.43;;;;;;;6.69;100.00;101774.09;5015792;28;20037;-88
2023/10/15 04:17:25;;;;;;;0.50;0.50;;;;;;;6.75;100.00;101776.75;4995460;28;20125;-89
2023/10/15 04:19:50;;;;;;;0.52;0.40;;;;;;;6.83;100.00;101787.19;4995848;28;20025;-89
2023/10/15 04:22:16;;;;;;;0.30;0.30;;;;;;;6.84;100.00;101788.06;4995597;28;20034;-89
2023/10/15 04:24:50;;;;;;;0.22;0.22;;;;;;;6.82;100.00;101784.56;4995521;28;20022;-88
2023/10/15 04:27:17;;;;;;;0.43;0.32;;;;;;;6.80;100.00;101780.28;4995331;28;20031;-89
2023/10/15 04:29:49;;;;;;;0.60;0.40;;;;;;;6.85;100.00;101782.94;4995386;28;20035;-89
2023/10/15 04:32:45;;;;;;;0.38;0.38;;;;;;;6.85;100.00;101784.63;4995572;28;20057;-89
2023/10/15 04:35:25;;;;;;;0.40;0.40;;;;;;;6.79;100.00;101760.47;4992649;28;20114;-88
2023/10/15 04:37:52;;;;;;;0.30;0.30;;;;;;;6.87;100.00;101763.16;4995254;28;20030;-89
2023/10/15 04:40:23;;;;;;;0.40;0.40;;;;;;;6.87;100.00;101778.63;4995153;28;20073;-88
2023/10/15 04:42:49;;;;;;;0.30;0.30;;;;;;;6.85;100.00;101777.78;5013100;28;20560;-89
2023/10/15 04:45:21;;;;;;;0.60;0.60;;;;;;;6.87;100.00;101788.97;5013455;28;20042;-88
2023/10/15 04:48:02;;;;;;;0.52;0.52;;;;;;;6.76;100.00;101773.34;5014714;28;20145;-89
2023/10/15 04:50:35;;;;;;;0.98;0.70;;;;;;;6.86;100.00;101784.66;5014884;28;20101;-89
2023/10/15 04:53:13;;;;;;;0.70;0.70;;;;;;;6.83;100.00;101776.88;5014927;28;20033;-89
2023/10/15 04:55:40;;;;;;;1.10;0.60;;;;;;;6.84;100.00;101765.72;5014880;28;20030;-89
2023/10/15 04:58:20;;;;;;;0.40;0.40;;;;;;;6.72;100.00;101727.69;5013811;28;20076;-88
2023/10/15 05:00:47;;;;;;;0.38;0.38;;;;;;;6.83;100.00;101742.44;5014486;28;20030;-88
2023/10/15 05:03:28;;;;;;;0.60;0.60;;;;;;;6.70;100.00;101725.94;5014782;28;20394;-89
2023/10/15 05:06:13;;;;;;;0.50;0.50;;;;;;;6.80;100.00;101745.84;5014035;28;20037;-89
2023/10/15 05:08:40;;;;;;;0.52;0.52;;;;;;;6.74;100.00;101748.34;5014879;28;20022;-89
2023/10/15 05:11:09;;;;;;;0.50;0.50;;;;;;;6.65;100.00;101738.75;4996576;28;20041;-89
2023/10/15 05:13:34;;;;;;;0.90;0.90;;;;;;;6.76;100.00;101751.81;4994709;28;20031;-89
2023/10/15 05:15:59;;;;;;;0.57;0.57;;;;;;;6.65;100.00;101739.59;4995055;28;20479;-89
2023/10/15 05:18:35;;;;;;;0.70;0.70;;;;;;;6.76;100.00;101762.13;4994649;28;20494;-89
2023/10/15 05:21:16;;;;;;;0.60;0.60;;;;;;;6.68;100.00;101754.28;4994419;28;20483;-88
2023/10/15 05:23:41;;;;;;;0.75;0.75;;;;;;;6.72;100.00;101762.94;4994457;28;20022;-89
2023/10/15 05:26:06;;;;;;;0.60;0.60;;;;;;;6.72;100.00;101768.09;4994195;28;20425;-88
2023/10/15 05:28:33;;;;;;;0.80;0.80;;;;;;;6.72;100.00;101781.00;4994605;28;20019;-88
2023/10/15 05:30:58;;;;;;;0.50;0.50;;;;;;;6.78;100.00;101801.72;4994641;28;20460;-89
2023/10/15 05:33:39;;;;;;;1.90;1.55;;;;;;;6.63;100.00;101792.91;4993873;28;20161;-90
2023/10/15 05:36:06;;;;;;;1.70;1.38;;;;;;;6.74;100.00;101818.88;4994337;28;20037;-88
2023/10/15 05:38:41;;;;;;;;;;;;;;;6.75;100.00;101827.50;5007355;28;20040;-90
2023/10/15 05:41:06;;;;;;;2.40;1.30;;;;;;;6.69;100.00;101828.25;5013738;28;20369;-90
2023/10/15 05:43:32;;;;;;;2.30;1.30;;;;;;;6.69;100.00;101817.06;5014213;28;20035;-90
2023/10/15 05:45:57;;;;;;;1.45;1.30;;;;;;;6.55;100.00;101803.94;5014420;28;20041;-89
2023/10/15 05:48:35;;;;;;;1.48;1.20;;;;;;;6.46;100.00;101802.06;5013672;28;20038;-89
2023/10/15 05:51:03;;;;;;;1.10;1.00;;;;;;;6.44;100.00;101814.06;5013458;28;20523;-87
2023/10/15 05:53:28;;;;;;;1.45;0.85;;;;;;;6.29;100.00;101796.63;5012314;28;20057;-86
2023/10/15 05:56:09;;;;;;;1.23;0.90;;;;;;;6.34;100.00;101798.44;5012312;28;20068;-88
2023/10/15 05:58:36;;;;;;;0.75;0.50;;;;;;;6.31;100.00;101811.25;5012614;28;20052;-88
2023/10/15 06:01:03;;;;;;;;;;;;;;;6.29;100.00;101820.69;5014033;28;20030;-89
2023/10/15 06:03:29;;;;;;;0.40;0.40;;;;;;;6.26;100.00;101825.78;5013681;28;19966;-89
2023/10/15 06:05:56;;;;;;;0.50;0.50;;;;;;;6.27;100.00;101824.94;5003890;28;20030;-89
2023/10/15 06:08:21;;;;;;;0.70;0.40;;;;;;;6.25;100.00;101826.63;4993581;28;20034;-88
2023/10/15 06:10:57;;;;;;;0.30;0.30;;;;;;;6.11;100.00;101804.88;5049797;23;20486;-88
2023/10/15 06:13:44;;;;;;;0.35;0.35;;;;;;;6.27;100.00;101830.09;5053136;28;20483;-88
2023/10/15 06:16:28;;;;;;;0.20;0.20;;;;;;;6.24;100.00;101831.78;5052920;28;20036;-89
2023/10/15 06:19:11;;;;;;;0.73;0.47;;;;;;;6.15;100.00;101824.72;5053146;28;20040;-88
2023/10/15 06:21:55;;;;;;;1.10;0.35;;;;;;;6.20;100.00;101825.66;5053423;28;20033;-89
2023/10/15 06:24:33;;;;;;;0.20;0.20;;;;;;;6.20;100.00;101812.78;5052897;28;20021;-89
2023/10/15 06:27:00;;;;;;;0.57;0.57;;;;;;;6.36;100.00;101831.97;5053075;28;20028;-89
2023/10/15 06:29:25;;;;;;;0.20;0.20;;;;;;;6.39;100.00;101842.34;5053742;28;20024;-88
2023/10/15 06:32:17;;;;;;;0.20;0.20;;;;;;;6.45;100.00;101844.16;5053371;28;20032;-89
2023/10/15 06:34:43;;;;;;;0.20;0.20;;;;;;;6.43;100.00;101843.25;5053679;28;20533;-89
2023/10/15 06:37:19;;;;;;;0.30;0.30;;;;;;;6.48;100.00;101841.66;5052764;28;20119;-89
2023/10/15 06:40:03;;;;;;;0.30;0.22;;;;;;;6.55;100.00;101855.53;5052998;28;20155;-89
2023/10/15 06:42:51;;;;;;;0.20;0.20;;;;;;;6.57;100.00;101859.00;5071030;28;20044;-88
2023/10/15 06:45:35;;;;;;;0.20;0.20;;;;;;;6.50;100.00;101837.38;5075540;28;20048;-88
2023/10/15 06:48:22;;;;;;;0.20;0.20;;;;;;;6.44;100.00;101829.53;5057089;28;20079;-88
2023/10/15 06:51:06;;;;;;;0.28;0.28;;;;;;;6.44;100.00;101839.84;5065632;28;20020;-88
2023/10/15 06:53:52;;;;;;;0.68;0.30;;;;;;;6.44;100.00;101832.09;5076570;28;20431;-89
2023/10/15 06:56:35;;;;;;;0.15;0.15;;;;;;;6.48;100.00;101844.22;5065055;28;20024;-87
2023/10/15 06:59:01;;;;;;;0.43;0.30;;;;;;;6.44;100.00;101838.16;5056030;28;20044;-89
2023/10/15 07:01:32;;;;;;;0.20;0.20;;;;;;;6.49;100.00;101845.97;5056772;28;20377;-90
2023/10/15 07:04:12;;;;;;;0.30;0.20;;;;;;;6.58;100.00;101853.00;5056310;28;20040;-89
2023/10/15 07:06:39;;;;;;;0.20;0.20;;;;;;;6.62;100.00;101860.81;5056268;28;20067;-89
2023/10/15 07:09:14;;;;;;;0.30;0.30;;;;;;;6.65;100.00;101868.59;5054726;28;20475;-88
2023/10/15 07:11:40;;;;;;;0.30;0.30;;;;;;;6.77;100.00;101879.97;5055252;28;20079;-78
2023/10/15 07:14:09;;;;;;;0.20;0.20;;;;;;;6.78;100.00;101884.28;5055518;28;20029;-89
2023/10/15 07:16:44;;;;;;;0.35;0.35;;;;;;;6.65;100.00;101866.00;5056611;28;20025;-89
2023/10/15 07:19:09;;;;;;;0.88;0.40;;;;;;;6.69;100.00;101868.66;5055178;28;20071;-88
2023/10/15 07:21:34;;;;;;;0.47;0.33;;;;;;;6.79;100.00;101880.88;5055926;28;20021;-88
2023/10/15 07:24:00;;;;;;;1.30;0.50;;;;;;;6.92;100.00;101892.28;5064368;28;20029;-88
2023/10/15 07:26:25;;;;;;;0.40;0.40;;;;;;;6.98;100.00;101891.53;5072900;28;20063;-88
2023/10/15 07:28:50;;;;;;;0.60;0.40;;;;;;;7.05;100.00;101895.94;5075519;28;20082;-88
2023/10/15 07:31:16;;;;;;;0.20;0.20;;;;;;;7.13;100.00;101906.38;5075296;28;20028;-87
2023/10/15 07:33:42;;;;;;;0.20;0.20;;;;;;;7.22;100.00;101909.09;5074931;28;20031;-88
2023/10/15 07:36:07;;;;;;;0.40;0.30;;;;;;;7.22;100.00;101909.09;5075370;28;20017;-87
2023/10/15 07:38:33;;;;;;;0.45;0.40;;;;;;;7.26;100.00;101916.91;5074011;28;20410;-88
2023/10/15 07:41:00;;;;;;;0.22;0.22;;;;;;;7.32;100.00;101928.22;5074800;28;20469;-88
2023/10/15 07:43:25;;;;;;;0.55;0.38;;;;;;;7.32;100.00;101921.31;5073818;28;20059;-89
2023/10/15 07:45:51;;;;;;;0.70;0.30;;;;;;;7.30;100.00;101902.34;5074175;28;20029;-89
2023/10/15 07:48:16;;;;;;;0.37;0.37;;;;;;;7.31;100.00;101905.81;5054872;28;20029;-87
2023/10/15 07:50:45;;;;;;;0.47;0.43;;;;;;;7.39;100.00;101915.38;5055335;28;20024;-88
2023/10/15 07:53:19;;;;;;;1.10;0.30;;;;;;;7.33;100.00;101906.66;5070070;28;20040;-86
2023/10/15 07:55:46;;;;;;;0.30;0.30;;;;;;;7.38;100.00;101908.47;5055767;28;20029;-86
2023/10/15 07:58:12;;;;;;;0.65;0.60;;;;;;;7.51;100.00;101937.97;5069363;28;20107;-87
2023/10/15 08:00:53;;;;;;;0.53;0.50;;;;;;;7.54;100.00;101926.81;5072179;28;20099;-86
2023/10/15 08:03:18;;;;;;;1.85;0.95;;;;;;;7.42;100.00;101915.44;5055686;28;20036;-87
2023/10/15 08:05:46;;;;;;;0.83;0.77;;;;;;;7.49;100.00;101910.34;5055120;28;20481;-88
2023/10/15 08:08:12;;;;;;;0.77;0.75;;;;;;;7.54;100.00;101929.38;5053942;28;20012;-87
2023/10/15 08:10:37;;;;;;;1.00;0.77;;;;;;;7.61;100.00;101933.78;5054797;28;20053;-88
2023/10/15 08:13:09;;;;;;;0.90;0.70;;;;;;;7.68;100.00;101939.91;5055154;28;20397;-87
2023/10/15 08:15:34;;;;;;;1.35;0.50;;;;;;;7.77;100.00;101945.19;5054059;28;20059;-88
2023/10/15 08:18:03;;;;;;;1.40;0.77;;;;;;;7.85;100.00;101953.06;5054864;28;20064;-88
2023/10/15 08:20:29;;;;;;;0.60;0.60;;;;;;;7.90;100.00;101959.19;5054709;28;20017;-88
2023/10/15 08:23:01;;;;;;;1.10;0.80;;;;;;;7.96;100.00;101968.75;5053883;28;20021;-88
2023/10/15 08:25:26;;;;;;;0.90;0.70;;;;;;;7.89;100.00;101953.13;5054392;28;20025;-87
2023/10/15 08:28:02;;;;;;;0.70;0.70;;;;;;;8.02;100.00;101973.97;5054697;28;20443;-87
2023/10/15 08:30:30;;;;;;;1.23;0.68;;;;;;;8.12;100.00;101990.50;5053893;28;20039;-87
2023/10/15 08:32:55;;;;;;;0.57;0.55;;;;;;;8.11;100.00;101971.50;5054094;28;20032;-87
2023/10/15 08:35:21;;;;;;;0.47;0.47;;;;;;;8.26;100.00;102001.00;5054164;28;20372;-87
2023/10/15 08:38:01;;;;;;;0.60;0.40;;;;;;;8.17;100.00;102000.06;5057683;28;20120;-86
2023/10/15 08:40:39;;;;;;;1.15;0.70;;;;;;;8.17;100.00;102025.03;5057587;28;20035;-87
2023/10/15 08:43:24;;;;;;;1.02;0.63;;;;;;;8.09;100.00;102031.81;5061553;28;20036;-86
2023/10/15 08:45:51;;;;;;;2.00;1.00;;;;;;;7.87;100.00;102026.34;5053989;28;20037;-86
2023/10/15 08:48:18;;;;;;;1.25;0.70;;;;;;;7.86;100.00;102028.06;5053787;28;20378;-86
2023/10/15 08:50:45;;;;;;;;;;;;;;;7.84;100.00;102034.03;5053610;28;20021;-86
2023/10/15 08:53:12;;;;;;;1.27;0.47;;;;;;;7.74;100.00;102027.88;5053784;28;19908;-86
2023/10/15 08:55:37;;;;;;;0.88;0.60;;;;;;;7.73;100.00;102037.34;5053918;28;20057;-85
2023/10/15 08:58:06;;;;;;;0.63;0.50;;;;;;;7.73;100.00;102047.66;5053145;28;20021;-87
2023/10/15 09:00:32;;;;;;;1.30;0.70;;;;;;;7.70;100.00;102052.81;5069825;28;20020;-87
2023/10/15 09:03:00;;;;;;;0.33;0.33;;;;;;;7.67;100.00;102060.50;5065081;28;20091;-88
2023/10/15 09:05:30;;;;;;;1.13;0.60;;;;;;;7.68;100.00;102066.53;5052765;28;20482;-87
2023/10/15 09:07:56;;;;;;;2.08;0.75;;;;;;;7.53;100.00;102044.78;5052520;28;20056;-87
2023/10/15 09:10:23;;;;;;;1.30;0.80;;;;;;;7.63;100.00;102063.00;5058929;28;20518;-87
2023/10/15 09:12:49;;;;;;;1.08;0.60;;;;;;;7.66;100.00;102065.63;5070759;28;20035;-86
2023/10/15 09:15:31;;;;;;;0.30;0.30;;;;;;;7.69;100.00;102065.69;5075277;28;20039;-87
2023/10/15 09:17:57;;;;;;;1.05;0.45;;;;;;;7.74;100.00;102069.22;5070394;28;20380;-87
2023/10/15 09:20:27;;;;;;;0.32;0.32;;;;;;;7.87;100.00;102088.38;5075104;28;20052;-87
2023/10/15 09:23:01;;;;;;;0.40;0.40;;;;;;;7.80;100.00;102066.72;5073303;28;20021;-86
2023/10/15 09:25:28;;;;;;;1.00;0.50;;;;;;;7.96;100.00;102072.16;5072479;28;20465;-87
2023/10/15 09:27:54;;;;;;;0.40;0.40;;;;;;;8.05;100.00;102074.88;5071299;28;20024;-87
2023/10/15 09:30:28;;;;;;;0.25;0.25;;;;;;;8.09;100.00;102068.03;5074189;28;20461;-87
2023/10/15 09:33:07;;;;;;;0.30;0.30;;;;;;;8.27;100.00;102073.47;5068663;28;20043;-87
2023/10/15 09:35:35;;;;;;;1.35;0.35;;;;;;;8.40;100.00;102058.97;5075105;28;20033;-88
2023/10/15 09:38:00;;;;;;;0.45;0.45;;;;;;;8.59;100.00;102054.94;5070725;28;20021;-88
2023/10/15 09:40:35;;;;;;;1.80;0.40;;;;;;;8.86;100.00;102063.03;5066402;28;20073;-88
2023/10/15 09:43:01;;;;;;;0.88;0.30;;;;;;;9.07;100.00;102073.63;5072421;28;20029;-88
2023/10/15 09:45:30;;;;;;;0.70;0.50;;;;;;;9.19;100.00;102088.41;5072178;28;20028;-88
2023/10/15 09:48:11;;;;;;;1.05;0.40;;;;;;;9.16;100.00;102071.97;5072946;28;20059;-88
2023/10/15 09:50:41;;;;;;;1.30;0.43;;;;;;;9.32;100.00;102093.72;5072766;28;20021;-86
2023/10/15 09:53:21;;;;;;;0.68;0.40;;;;;;;9.22;100.00;102083.25;5073066;28;20020;-87
2023/10/15 09:55:47;;;;;;;0.30;0.30;;;;;;;9.23;100.00;102089.34;5071773;28;20028;-88
2023/10/15 09:58:15;;;;;;;0.88;0.40;;;;;;;9.29;100.00;102101.47;5073538;28;20492;-87
2023/10/15 10:01:06;;;;;;;0.68;0.50;;;;;;;9.31;100.00;102108.41;5067137;28;20029;-88
2023/10/15 10:04:19;;;;;;;0.75;0.40;;;;;;;9.14;100.00;102108.22;5070509;28;20032;-87
2023/10/15 10:07:05;;;;;;;0.38;0.38;;;;;;;9.23;100.00;102117.81;5073983;28;20036;-88
2023/10/15 10:09:51;;;;;;;0.88;0.60;;;;;;;9.23;100.00;102115.25;5076059;28;20043;-87
2023/10/15 10:12:25;;;;;;;0.45;0.45;;;;;;;9.30;100.00;102118.72;5095767;28;20054;-86
2023/10/15 10:15:10;;;;;;;1.35;0.50;;;;;;;9.40;100.00;102120.59;5109807;28;20421;-87
2023/10/15 10:17:37;;;;;;;1.17;0.60;;;;;;;9.47;100.00;102124.97;5113317;28;20061;-86
2023/10/15 10:20:21;;;;;;;0.50;0.50;;;;;;;9.53;100.00;102125.00;5117111;28;20089;-86
2023/10/15 10:23:02;;;;;;;0.90;0.68;;;;;;;9.56;100.00;102144.94;5075859;28;20060;-86
2023/10/15 10:25:52;;;;;;;0.50;0.50;;;;;;;9.45;100.00;102146.56;5085516;28;20035;-87
2023/10/15 10:28:35;;;;;;;1.20;0.43;;;;;;;9.43;100.00;102149.09;5095037;28;20042;-86
2023/10/15 10:31:01;;;;;;;0.47;0.45;;;;;;;9.41;100.00;102146.50;5094061;28;20032;-86
2023/10/15 10:33:45;;;;;;;0.30;0.30;;;;;;;9.41;100.00;102150.81;5095055;28;20028;-85
2023/10/15 10:36:13;;;;;;;0.32;0.30;;;;;;;9.39;100.00;102150.78;5095010;28;20480;-87
2023/10/15 10:38:39;;;;;;;0.40;0.30;;;;;;;9.31;100.00;102139.50;5096685;28;20031;-87
2023/10/15 10:41:22;;;;;;;0.40;0.40;;;;;;;9.39;100.00;102132.66;5096279;28;20020;-87
2023/10/15 10:43:48;;;;;;;0.47;0.30;;;;;;;9.65;100.00;102134.66;5096011;28;20024;-87
2023/10/15 10:46:41;;;;;;;0.20;0.15;;;;;;;9.89;100.00;102138.31;5096281;28;20235;-87
2023/10/15 10:49:13;;;;;;;0.30;0.30;;;;;;;9.92;100.00;102133.13;5093026;28;20434;-87
2023/10/15 10:51:57;;;;;;;0.70;0.28;;;;;;;9.96;100.00;102116.75;5095996;28;20040;-87
2023/10/15 10:54:25;;;;;;;0.32;0.30;;;;;;;10.13;100.00;102148.00;5095713;28;20032;-86
2023/10/15 10:56:50;;;;;;;0.35;0.30;;;;;;;10.09;100.00;102142.78;5099590;28;20097;-86
2023/10/15 10:59:30;;;;;;;0.50;0.30;;;;;;;9.90;100.00;102116.72;5097394;28;20031;-87
2023/10/15 11:01:56;;;;;;;0.68;0.30;;;;;;;9.96;100.00;102126.28;5095002;28;20024;-87
2023/10/15 11:04:21;;;;;;;0.13;0.13;;;;;;;9.97;100.00;102133.16;5100597;28;20153;-87
2023/10/15 11:07:05;;;;;;;0.57;0.27;;;;;;;9.96;100.00;102144.44;5107039;28;20012;-87
2023/10/15 11:09:30;;;;;;;0.65;0.30;;;;;;;9.89;100.00;102151.28;5102779;28;20026;-88
2023/10/15 11:11:57;;;;;;;1.17;0.50;;;;;;;9.77;99.22;102143.41;5100617;28;20040;-87
2023/10/15 11:14:40;;;;;;;0.63;0.40;;;;;;;9.79;99.46;102163.28;5101900;28;20032;-88
2023/10/15 11:17:07;;;;;;;0.32;0.30;;;;;;;9.66;99.87;102154.53;5099424;28;20023;-82
2023/10/15 11:19:33;;;;;;;0.30;0.30;;;;;;;9.73;99.45;102158.06;5101421;28;20743;-86
2023/10/15 11:22:14;;;;;;;1.53;0.30;;;;;;;9.81;100.00;102151.22;5105154;28;20060;-86
2023/10/15 11:24:39;;;;;;;0.43;0.40;;;;;;;9.95;100.00;102134.91;5102511;28;20471;-85
2023/10/15 11:27:11;;;;;;;0.97;0.30;;;;;;;10.23;100.00;102153.25;5096377;28;20028;-83
2023/10/15 11:29:37;;;;;;;0.45;0.40;;;;;;;10.33;99.88;102166.31;5094915;28;20017;-85
2023/10/15 11:32:06;;;;;;;0.20;0.17;;;;;;;10.28;98.39;102162.81;5091089;28;20035;-86
2023/10/15 11:34:33;;;;;;;1.73;0.40;;;;;;;10.17;94.96;102167.06;5096626;28;20027;-87
2023/10/15 11:37:01;;;;;;;1.85;0.73;;;;;;;10.08;94.60;102174.78;5093951;28;20031;-85
2023/10/15 11:39:37;;;;;;;0.80;0.30;;;;;;;10.15;97.41;102173.94;5096114;28;20043;-86
2023/10/15 11:42:13;;;;;;;0.70;0.60;;;;;;;10.25;98.20;102152.41;5101611;28;20035;-86
2023/10/15 11:44:56;;;;;;;0.65;0.40;;;;;;;10.23;98.12;102137.69;5098695;28;20019;-86
2023/10/15 11:47:24;;;;;;;0.30;0.22;;;;;;;10.40;98.03;102163.78;5101780;28;20016;-86
2023/10/15 11:49:59;;;;;;;0.20;0.20;;;;;;;10.35;97.67;102153.34;5100622;28;20028;-85
2023/10/15 11:52:24;;;;;;;0.47;0.40;;;;;;;10.25;97.02;102144.63;5103115;28;20414;-86
2023/10/15 11:54:50;;;;;;;0.27;0.20;;;;;;;10.20;95.63;102161.91;5102951;28;20086;-86
2023/10/15 11:57:39;;;;;;;0.20;0.20;;;;;;;10.04;96.84;102138.41;5100722;28;20107;-86
2023/10/15 12:00:09;;;;;;;0.77;0.45;;;;;;;10.04;97.49;102148.78;5103268;28;20032;-87
2023/10/15 12:02:56;;;;;;;0.52;0.20;;;;;;;10.17;97.97;102160.16;5099868;28;20141;-88
2023/10/15 12:05:54;;;;;;;0.68;0.40;;;;;;;10.11;98.04;102147.13;5097066;28;20027;-87
2023/10/15 12:08:21;;;;;;;0.40;0.40;;;;;;;10.08;98.09;102152.28;5051813;28;20055;-85
2023/10/15 12:10:47;;;;;;;0.10;0.10;;;;;;;9.99;98.08;102149.63;5100254;28;20131;-86
2023/10/15 12:13:31;;;;;;;0.93;0.35;;;;;;;10.02;97.16;102155.69;5103024;28;20039;-86
2023/10/15 12:15:56;;;;;;;0.75;0.28;;;;;;;10.15;97.74;102176.53;5101288;28;20094;-86
2023/10/15 12:18:22;;;;;;;0.53;0.30;;;;;;;10.14;97.77;102162.72;5103848;28;20540;-87
2023/10/15 12:20:55;;;;;;;0.57;0.43;;;;;;;10.21;98.42;102150.66;5098382;28;20464;-86
2023/10/15 12:23:21;;;;;;;0.82;0.47;;;;;;;10.39;98.29;102168.13;5099391;28;20066;-86